Time;durP1;ratioP1;P1;durP2;ratioP2;P2;SDS_P1;SDS_P2;PMS_P1;PMS_P2;Temp;Humidity;BMP_temperature;BMP_pressure;BME280_temperature;BME280_humidity;BME280_pressure;Samples;Min_cycle;Max_cycle;Signal;HPM_P1;HPM_P2
2021/06/26 00:02:33;;;;;;;14.00;6.53;;;;;;;23.95;70.15;100187.36;1748091;82;21340;-53
2021/06/26 00:05:38;;;;;;;10.58;6.17;;;;;;;23.94;70.20;100184.28;1772731;81;21270;-55
2021/06/26 00:08:43;;;;;;;15.30;6.95;;;;;;;23.94;70.11;100186.23;1772628;81;21223;-54
2021/06/26 00:11:50;;;;;;;19.27;6.40;;;;;;;23.93;69.99;100185.38;1773205;81;21255;-53
2021/06/26 00:14:55;;;;;;;15.18;6.40;;;;;;;23.89;70.17;100175.84;1772924;81;21749;-53
2021/06/26 00:18:00;;;;;;;12.90;6.30;;;;;;;23.89;70.14;100174.45;1773244;81;21252;-54
2021/06/26 00:21:05;;;;;;;14.55;6.35;;;;;;;23.85;70.17;100177.48;1772926;81;21235;-52
2021/06/26 00:24:11;;;;;;;16.10;6.70;;;;;;;23.79;70.21;100175.76;1772810;81;21628;-51
2021/06/26 00:27:17;;;;;;;15.03;6.05;;;;;;;23.74;70.47;100171.52;1772965;81;21180;-53
2021/06/26 00:30:23;;;;;;;13.95;6.80;;;;;;;23.71;70.79;100169.26;1773026;81;21220;-52
2021/06/26 00:33:29;;;;;;;15.83;7.05;;;;;;;23.69;70.89;100176.23;1772580;81;21193;-53
2021/06/26 00:36:33;;;;;;;13.70;7.17;;;;;;;23.64;70.91;100174.25;1772972;81;21231;-53
2021/06/26 00:39:40;;;;;;;15.18;7.17;;;;;;;23.53;71.17;100165.48;1773127;81;21205;-53
2021/06/26 00:42:47;;;;;;;13.58;6.33;;;;;;;23.46;71.47;100159.25;1772627;81;21737;-52
2021/06/26 00:45:54;;;;;;;12.13;6.33;;;;;;;23.39;71.88;100165.59;1773247;81;21213;-53
2021/06/26 00:49:01;;;;;;;14.20;7.28;;;;;;;23.34;72.08;100162.78;1773102;81;21232;-53
2021/06/26 00:52:06;;;;;;;15.43;7.00;;;;;;;23.29;72.23;100164.12;1772661;81;21574;-53
2021/06/26 00:55:13;;;;;;;14.03;6.83;;;;;;;23.24;72.43;100163.48;1771055;81;21259;-53
2021/06/26 00:58:18;;;;;;;11.78;6.83;;;;;;;23.23;72.69;100159.56;1773215;81;21211;-53
2021/06/26 01:01:23;;;;;;;13.55;6.30;;;;;;;23.24;72.65;100166.83;1773084;81;21274;-52
2021/06/26 01:04:29;;;;;;;11.63;7.03;;;;;;;23.25;72.63;100165.70;1762977;80;21231;-55
2021/06/26 01:07:34;;;;;;;14.68;6.75;;;;;;;23.28;72.63;100161.02;1735336;82;21347;-54
2021/06/26 01:10:40;;;;;;;11.97;6.78;;;;;;;23.29;72.59;100159.93;1748576;81;21210;-54
2021/06/26 01:13:46;;;;;;;13.72;6.55;;;;;;;23.30;72.55;100156.02;1742526;82;21259;-54
2021/06/26 01:16:52;;;;;;;13.48;6.92;;;;;;;23.32;72.54;100156.06;1748196;82;21276;-55
2021/06/26 01:20:00;;;;;;;12.53;6.78;;;;;;;23.35;72.46;100154.13;1748400;81;21198;-53
2021/06/26 01:23:06;;;;;;;19.10;6.75;;;;;;;23.39;72.37;100162.80;1748620;82;21213;-54
2021/06/26 01:26:13;;;;;;;14.35;7.42;;;;;;;23.41;72.44;100160.05;1742497;82;21192;-53
2021/06/26 01:29:18;;;;;;;14.53;6.45;;;;;;;23.44;72.35;100160.06;1748328;82;21215;-54
2021/06/26 01:32:25;;;;;;;11.00;6.50;;;;;;;23.46;72.21;100169.03;1748638;81;21254;-54
2021/06/26 01:35:31;;;;;;;10.45;6.78;;;;;;;23.48;72.08;100166.25;1735220;82;21255;-54
2021/06/26 01:38:36;;;;;;;15.55;7.00;;;;;;;23.51;71.99;100173.28;1735484;82;21410;-55
2021/06/26 01:41:42;;;;;;;11.88;7.80;;;;;;;23.52;71.90;100176.34;1735451;82;21531;-55
2021/06/26 01:44:48;;;;;;;24.35;12.18;;;;;;;23.54;71.84;100180.58;1735245;82;21225;-55
2021/06/26 01:47:55;;;;;;;38.73;18.50;;;;;;;23.55;71.81;100166.03;1735202;82;21189;-56
2021/06/26 01:51:00;;;;;;;36.25;19.20;;;;;;;23.58;71.76;100172.48;1735136;82;21283;-54
2021/06/26 01:54:05;;;;;;;24.47;15.38;;;;;;;23.61;71.78;100158.83;1735719;82;21268;-55
2021/06/26 01:57:14;;;;;;;18.15;9.95;;;;;;;23.66;71.77;100167.81;1748677;81;21186;-55
2021/06/26 02:00:20;;;;;;;17.00;7.67;;;;;;;23.69;71.65;100163.08;1738612;82;21216;-55
2021/06/26 02:03:26;;;;;;;21.73;8.08;;;;;;;23.73;71.49;100161.45;1748040;82;21187;-55
2021/06/26 02:06:31;;;;;;;13.58;7.40;;;;;;;23.74;71.37;100155.31;1765617;80;21776;-54
2021/06/26 02:09:35;;;;;;;13.48;7.22;;;;;;;23.75;71.33;100149.46;1784267;80;21258;-55
2021/06/26 02:12:41;;;;;;;13.75;6.97;;;;;;;23.73;71.19;100155.86;1783972;80;21196;-55
2021/06/26 02:15:47;;;;;;;15.60;7.42;;;;;;;23.72;71.16;100151.94;1784265;80;21235;-54
2021/06/26 02:18:53;;;;;;;16.12;7.50;;;;;;;23.71;71.19;100149.69;1784194;80;21180;-55
2021/06/26 02:21:59;;;;;;;14.53;6.80;;;;;;;23.72;71.14;100150.54;1783912;80;21562;-54
2021/06/26 02:25:05;;;;;;;17.75;6.80;;;;;;;23.73;71.30;100143.83;1783914;80;21362;-54
2021/06/26 02:28:10;;;;;;;17.30;6.92;;;;;;;23.74;71.42;100146.36;1783830;80;21735;-54
2021/06/26 02:31:14;;;;;;;13.45;6.85;;;;;;;23.76;71.55;100146.94;1783868;80;21866;-54
2021/06/26 02:34:20;;;;;;;19.48;7.83;;;;;;;23.78;71.54;100146.13;1784073;80;21187;-54
2021/06/26 02:37:28;;;;;;;18.73;7.37;;;;;;;23.81;71.50;100146.98;1784211;80;21254;-55
2021/06/26 02:40:33;;;;;;;16.95;7.60;;;;;;;23.82;71.52;100144.47;1784066;80;21240;-56
2021/06/26 02:43:39;;;;;;;19.23;8.45;;;;;;;23.81;71.39;100141.39;1784350;80;21224;-55
2021/06/26 02:46:45;;;;;;;23.52;8.75;;;;;;;23.78;71.33;100145.27;1784237;80;21292;-55
2021/06/26 02:49:51;;;;;;;17.62;8.85;;;;;;;23.75;71.32;100143.87;1784316;80;21180;-54
2021/06/26 02:52:57;;;;;;;21.17;7.97;;;;;;;23.74;71.46;100139.36;1784412;80;21254;-55
2021/06/26 02:56:02;;;;;;;17.00;7.87;;;;;;;23.77;71.46;100147.22;1784053;80;21370;-55
2021/06/26 02:59:10;;;;;;;12.75;7.55;;;;;;;23.78;71.52;100143.33;1763739;80;21263;-56
2021/06/26 03:02:15;;;;;;;15.88;7.90;;;;;;;23.79;71.44;100147.80;1775464;81;21358;-55
2021/06/26 03:05:20;;;;;;;17.27;8.18;;;;;;;23.81;71.42;100152.58;1784162;80;21362;-55
2021/06/26 03:08:26;;;;;;;13.43;8.40;;;;;;;23.83;71.34;100153.16;1783759;79;21271;-55
2021/06/26 03:11:31;;;;;;;16.82;7.05;;;;;;;23.88;71.33;100157.95;1784187;80;21319;-55
2021/06/26 03:14:36;;;;;;;15.03;7.60;;;;;;;23.93;71.53;100158.81;1784378;80;21294;-55
2021/06/26 03:17:41;;;;;;;15.68;7.60;;;;;;;24.00;71.49;100156.67;1784119;80;21223;-56
2021/06/26 03:20:47;;;;;;;18.67;8.38;;;;;;;24.01;71.03;100159.74;1783090;80;21172;-55
2021/06/26 03:23:52;;;;;;;15.98;8.20;;;;;;;24.01;71.02;100169.53;1784338;80;21338;-55
2021/06/26 03:26:57;;;;;;;17.65;8.13;;;;;;;24.03;71.14;100158.92;1783987;80;21227;-55
2021/06/26 03:30:03;;;;;;;17.80;7.72;;;;;;;24.05;71.17;100153.06;1784142;80;21334;-56
2021/06/26 03:33:09;;;;;;;16.70;8.35;;;;;;;24.09;71.14;100155.05;1783702;80;21357;-55
2021/06/26 03:36:14;;;;;;;12.47;8.03;;;;;;;24.14;71.17;100150.03;1758252;80;21386;-54
2021/06/26 03:39:20;;;;;;;16.73;7.95;;;;;;;24.19;71.21;100153.72;1744668;82;21382;-54
2021/06/26 03:42:25;;;;;;;15.63;7.70;;;;;;;24.26;71.32;100150.11;1777255;80;21836;-54
2021/06/26 03:45:30;;;;;;;14.98;7.87;;;;;;;24.34;71.14;100144.00;1783514;79;21219;-55
2021/06/26 03:48:36;;;;;;;17.90;8.40;;;;;;;24.43;71.05;100142.40;1783163;80;21859;-54
2021/06/26 03:51:42;;;;;;;13.25;8.10;;;;;;;24.52;71.03;100143.55;1783654;79;21788;-55
2021/06/26 03:54:49;;;;;;;12.70;8.98;;;;;;;24.61;71.01;100140.50;1784145;79;21381;-55
2021/06/26 03:57:54;;;;;;;16.05;8.50;;;;;;;24.68;70.56;100144.49;1783562;80;21211;-54
2021/06/26 04:01:01;;;;;;;17.42;9.05;;;;;;;24.72;70.46;100144.25;1783810;79;21405;-54
2021/06/26 04:04:06;;;;;;;12.90;8.68;;;;;;;24.77;70.35;100146.49;1783678;80;21255;-55
2021/06/26 04:07:14;;;;;;;21.68;9.10;;;;;;;24.82;70.60;100139.52;1783603;80;21188;-54
2021/06/26 04:10:19;;;;;;;11.33;9.30;;;;;;;24.93;70.07;100140.38;1759577;81;21352;-55
2021/06/26 04:13:25;;;;;;;20.10;10.10;;;;;;;25.02;69.96;100137.34;1759719;81;21772;-55
2021/06/26 04:16:32;;;;;;;19.20;10.20;;;;;;;25.12;69.65;100129.53;1759813;81;21256;-55
2021/06/26 04:19:40;;;;;;;19.37;9.90;;;;;;;25.22;69.58;100129.52;1759923;81;21323;-54
2021/06/26 04:22:47;;;;;;;19.70;10.30;;;;;;;25.33;69.74;100125.07;1759991;81;21185;-55
2021/06/26 04:25:54;;;;;;;21.50;10.28;;;;;;;25.43;69.49;100118.66;1760040;81;21237;-55
2021/06/26 04:28:59;;;;;;;12.33;9.25;;;;;;;25.52;69.27;100124.84;1760350;81;21375;-54
2021/06/26 04:32:07;;;;;;;18.87;9.60;;;;;;;25.60;69.23;100119.22;1760059;81;21213;-54
2021/06/26 04:35:17;;;;;;;21.00;9.68;;;;;;;25.66;69.37;100116.70;1759766;81;21284;-55
2021/06/26 04:38:22;;;;;;;25.15;11.22;;;;;;;25.73;69.51;100116.72;1759962;81;21285;-54
2021/06/26 04:41:28;;;;;;;13.88;9.50;;;;;;;25.83;69.60;100124.28;1759538;81;21224;-54
2021/06/26 04:44:32;;;;;;;15.72;9.23;;;;;;;25.94;69.16;100134.38;1759576;81;21798;-54
2021/06/26 04:47:39;;;;;;;19.82;9.75;;;;;;;26.04;68.85;100132.96;1759933;81;21294;-54
2021/06/26 04:50:43;;;;;;;14.58;9.48;;;;;;;26.15;68.60;100134.63;1743601;81;21217;-55
2021/06/26 04:53:50;;;;;;;14.50;9.03;;;;;;;26.28;68.75;100131.23;1758826;81;21208;-54
2021/06/26 04:56:54;;;;;;;16.90;9.35;;;;;;;26.40;68.66;100123.36;1759381;81;21220;-55
2021/06/26 05:00:00;;;;;;;16.57;9.05;;;;;;;26.52;67.77;100128.08;1759472;81;21236;-55
2021/06/26 05:03:04;;;;;;;16.93;8.73;;;;;;;26.64;67.83;100124.95;1759072;81;21185;-55
2021/06/26 05:06:10;;;;;;;14.53;8.50;;;;;;;26.74;67.18;100124.38;1747187;81;21221;-55
2021/06/26 05:09:14;;;;;;;19.32;8.70;;;;;;;26.83;66.97;100124.03;1731896;82;21263;-54
2021/06/26 05:12:20;;;;;;;12.80;7.97;;;;;;;26.93;66.17;100121.19;1768027;81;21276;-53
2021/06/26 05:15:27;;;;;;;11.38;7.90;;;;;;;27.04;66.09;100111.56;1749273;81;21798;-55
2021/06/26 05:18:32;;;;;;;14.47;8.20;;;;;;;27.12;65.02;100116.58;1782340;80;21756;-56
2021/06/26 05:21:38;;;;;;;13.00;8.53;;;;;;;27.21;64.49;100119.04;1742008;82;21331;-55
2021/06/26 05:24:43;;;;;;;15.98;8.55;;;;;;;27.29;63.54;100117.05;1769593;81;21666;-55
2021/06/26 05:27:48;;;;;;;19.90;8.88;;;;;;;27.36;63.43;100120.95;1750939;81;21426;-55
2021/06/26 05:30:53;;;;;;;14.18;8.23;;;;;;;27.42;63.54;100120.62;1782875;80;21405;-56
2021/06/26 05:33:58;;;;;;;21.10;8.30;;;;;;;27.51;62.98;100122.25;1742387;82;21197;-55
2021/06/26 05:37:04;;;;;;;15.45;8.00;;;;;;;27.58;63.25;100127.81;1769414;81;21342;-55
2021/06/26 05:40:12;;;;;;;15.48;8.58;;;;;;;27.67;63.34;100129.44;1750436;81;21379;-55
2021/06/26 05:43:17;;;;;;;14.47;8.00;;;;;;;27.78;63.30;100131.85;1769515;80;21883;-56
2021/06/26 05:46:23;;;;;;;15.98;8.23;;;;;;;27.87;63.23;100143.33;1736404;82;21423;-56
2021/06/26 05:49:28;;;;;;;15.48;8.73;;;;;;;27.94;62.71;100131.77;1734812;82;21428;-56
2021/06/26 05:52:34;;;;;;;12.55;8.70;;;;;;;28.01;62.47;100142.09;1734586;82;21206;-55
2021/06/26 05:55:38;;;;;;;15.93;8.60;;;;;;;28.05;61.86;100131.94;1734450;82;21805;-54
2021/06/26 05:58:43;;;;;;;16.60;8.78;;;;;;;28.11;61.87;100137.78;1734663;82;21285;-54
2021/06/26 06:01:49;;;;;;;19.45;9.25;;;;;;;28.16;61.43;100132.11;1734520;82;21300;-56
2021/06/26 06:04:54;;;;;;;15.80;9.55;;;;;;;28.24;61.88;100137.09;1735215;82;21972;-55
2021/06/26 06:08:00;;;;;;;17.27;8.88;;;;;;;28.28;60.57;100132.53;1734862;82;21289;-55
2021/06/26 06:11:08;;;;;;;15.85;8.95;;;;;;;28.35;60.38;100142.88;1735582;79;21240;-56
2021/06/26 06:14:12;;;;;;;14.95;8.15;;;;;;;28.42;60.47;100143.35;1753057;80;21757;-55
2021/06/26 06:17:17;;;;;;;16.45;8.23;;;;;;;28.46;59.73;100137.41;1739582;82;21200;-56
2021/06/26 06:20:23;;;;;;;18.70;8.73;;;;;;;28.50;59.78;100135.13;1742272;82;21220;-55
2021/06/26 06:23:30;;;;;;;14.10;8.68;;;;;;;28.45;59.31;100137.11;1742309;82;21199;-56
2021/06/26 06:26:36;;;;;;;14.70;9.15;;;;;;;28.41;59.56;100138.87;1742261;82;21591;-56
2021/06/26 06:29:42;;;;;;;20.32;8.40;;;;;;;28.35;59.56;100128.80;1742401;82;21228;-55
2021/06/26 06:32:47;;;;;;;13.83;8.63;;;;;;;28.30;59.72;100123.22;1742291;82;21232;-56
2021/06/26 06:35:54;;;;;;;18.55;8.68;;;;;;;28.26;60.69;100118.75;1742740;82;21208;-56
2021/06/26 06:39:00;;;;;;;20.05;9.30;;;;;;;28.24;61.26;100120.20;1742654;82;21224;-55
2021/06/26 06:42:08;;;;;;;16.15;9.05;;;;;;;28.20;60.58;100116.28;1742741;82;21307;-55
2021/06/26 06:45:15;;;;;;;18.20;9.58;;;;;;;28.16;60.90;100109.02;1742783;82;21236;-55
2021/06/26 06:48:21;;;;;;;20.82;9.28;;;;;;;28.17;61.48;100112.09;1742739;82;21228;-54
2021/06/26 06:51:28;;;;;;;20.90;9.60;;;;;;;28.24;62.08;100121.61;1744976;80;21240;-54
2021/06/26 06:54:34;;;;;;;22.30;10.38;;;;;;;28.37;62.77;100119.49;1730739;82;21235;-54
2021/06/26 06:57:40;;;;;;;15.40;9.38;;;;;;;28.57;62.68;100113.64;1737219;82;21627;-54
2021/06/26 07:00:46;;;;;;;18.17;9.08;;;;;;;28.84;61.93;100109.63;1707476;84;21224;-55
2021/06/26 07:03:51;;;;;;;22.98;9.53;;;;;;;29.08;61.40;100104.23;1742284;82;21263;-54
2021/06/26 07:06:57;;;;;;;16.02;8.43;;;;;;;29.30;59.98;100102.23;1747200;80;21761;-55
2021/06/26 07:10:03;;;;;;;12.20;9.00;;;;;;;29.55;59.28;100104.64;1778401;80;21235;-54
2021/06/26 07:13:08;;;;;;;17.95;8.70;;;;;;;29.79;58.02;100104.55;1719924;81;21252;-55
2021/06/26 07:16:15;;;;;;;14.65;8.55;;;;;;;30.13;57.55;100101.64;1738385;81;21230;-55
2021/06/26 07:19:21;;;;;;;13.15;8.80;;;;;;;30.13;57.55;100101.64;1722282;82;21363;-55
2021/06/26 07:22:26;;;;;;;16.95;8.35;;;;;;;30.26;57.62;100098.61;1734714;82;21475;-55
2021/06/26 07:25:31;;;;;;;18.85;8.50;;;;;;;30.39;57.76;100102.88;1734568;82;21909;-56
2021/06/26 07:28:37;;;;;;;14.28;7.90;;;;;;;30.54;56.91;100103.97;1735062;82;21341;-56
2021/06/26 07:31:44;;;;;;;13.10;7.83;;;;;;;30.70;56.94;100096.00;1734758;82;21210;-54
2021/06/26 07:34:50;;;;;;;14.18;7.33;;;;;;;30.82;55.90;100096.35;1735033;82;21411;-55
2021/06/26 07:37:55;;;;;;;11.65;7.42;;;;;;;30.91;56.14;100091.62;1728110;82;21463;-55
2021/06/26 07:41:00;;;;;;;12.23;7.10;;;;;;;30.97;56.12;100088.11;1705631;84;21418;-55
2021/06/26 07:44:07;;;;;;;13.85;7.50;;;;;;;30.98;54.59;100094.87;1705508;84;21214;-55
2021/06/26 07:47:12;;;;;;;11.60;7.87;;;;;;;30.98;54.44;100092.61;1705686;84;21391;-55
2021/06/26 07:50:18;;;;;;;13.00;6.97;;;;;;;30.97;54.41;100093.77;1705652;84;21384;-55
2021/06/26 07:53:23;;;;;;;16.45;8.05;;;;;;;30.98;54.36;100094.87;1705881;84;21404;-55
2021/06/26 07:56:30;;;;;;;13.15;7.95;;;;;;;30.94;54.16;100092.39;1705457;84;21225;-54
2021/06/26 07:59:35;;;;;;;10.95;7.45;;;;;;;30.86;53.29;100092.32;1705984;82;21368;-56
2021/06/26 08:02:40;;;;;;;15.40;7.20;;;;;;;30.76;53.90;100098.16;1705022;84;21945;-55
2021/06/26 08:05:44;;;;;;;25.92;8.25;;;;;;;30.72;54.01;100092.86;1704961;84;21921;-55
2021/06/26 08:08:50;;;;;;;15.72;7.40;;;;;;;30.73;54.55;100097.38;1704693;84;21209;-56
2021/06/26 08:11:54;;;;;;;12.55;7.53;;;;;;;30.78;53.90;100092.46;1705061;84;21905;-56
2021/06/26 08:15:01;;;;;;;18.55;7.80;;;;;;;30.87;53.85;100093.98;1717951;82;21265;-56
2021/06/26 08:18:07;;;;;;;13.05;7.95;;;;;;;30.96;53.72;100090.66;1710405;81;21268;-57
2021/06/26 08:21:13;;;;;;;17.70;8.48;;;;;;;31.10;53.84;100102.21;1738336;82;21332;-55
2021/06/26 08:24:22;;;;;;;18.73;8.05;;;;;;;31.23;53.86;100099.09;1765154;81;21333;-55
2021/06/26 08:27:28;;;;;;;17.45;9.00;;;;;;;31.29;53.47;100093.56;1725714;82;21351;-54
2021/06/26 08:30:33;;;;;;;17.82;10.40;;;;;;;31.38;52.97;100097.36;1712441;84;21954;-55
2021/06/26 08:33:38;;;;;;;15.83;10.82;;;;;;;31.49;51.92;100093.94;1730675;83;21216;-56
2021/06/26 08:36:44;;;;;;;16.62;10.05;;;;;;;31.61;52.25;100089.13;1731691;81;21736;-54
2021/06/26 08:39:51;;;;;;;17.92;10.08;;;;;;;31.71;50.74;100086.86;1764880;81;21184;-56
2021/06/26 08:42:56;;;;;;;16.50;8.93;;;;;;;31.74;50.43;100083.98;1769690;80;21327;-56
2021/06/26 08:46:03;;;;;;;13.65;8.38;;;;;;;31.81;49.64;100081.52;1782957;80;21239;-55
2021/06/26 08:49:08;;;;;;;13.13;7.95;;;;;;;31.88;49.39;100075.70;1769622;80;21185;-56
2021/06/26 08:52:15;;;;;;;14.20;8.13;;;;;;;31.97;47.63;100068.66;1769825;80;21892;-55
2021/06/26 08:55:20;;;;;;;11.68;6.78;;;;;;;32.06;48.85;100067.30;1783108;80;21270;-54
2021/06/26 08:58:26;;;;;;;11.03;6.03;;;;;;;32.11;47.68;100063.77;1769789;80;21335;-56
2021/06/26 09:01:32;;;;;;;13.93;6.35;;;;;;;32.14;47.93;100056.02;1769524;80;21433;-55
2021/06/26 09:04:39;;;;;;;10.68;6.10;;;;;;;32.25;47.55;100061.66;1738883;82;21378;-55
2021/06/26 09:07:47;;;;;;;18.55;6.78;;;;;;;32.35;47.47;100052.84;1724402;82;21188;-55
2021/06/26 09:10:55;;;;;;;15.32;5.90;;;;;;;32.46;46.87;100051.42;1738471;82;21888;-56
2021/06/26 09:14:00;;;;;;;12.88;5.55;;;;;;;32.57;46.89;100049.14;1770178;80;21211;-56
2021/06/26 09:17:05;;;;;;;10.90;5.87;;;;;;;32.66;47.38;100039.49;1782480;80;21215;-55
2021/06/26 09:20:12;;;;;;;10.72;5.22;;;;;;;32.74;48.12;100035.84;1769214;80;21351;-56
2021/06/26 09:23:33;;;;;;;12.15;5.30;;;;;;;32.88;47.37;100036.56;1782603;80;21560;-55
2021/06/26 09:26:37;;;;;;;9.28;3.70;;;;;;;33.01;47.21;100028.49;1736136;80;21350;-55
2021/06/26 09:29:43;;;;;;;10.48;4.55;;;;;;;33.10;44.09;100020.81;1717264;83;21212;-56
2021/06/26 09:32:51;;;;;;;11.45;3.87;;;;;;;33.20;42.12;100021.06;1705074;83;21380;-56
2021/06/26 09:36:17;;;;;;;12.70;4.20;;;;;;;33.22;43.09;100024.41;1705619;84;21467;-55
2021/06/26 09:39:23;;;;;;;12.47;4.83;;;;;;;33.34;43.46;100014.63;1705777;84;21427;-55
2021/06/26 09:42:41;;;;;;;7.25;3.85;;;;;;;33.47;44.14;100009.97;1705950;84;21257;-54
2021/06/26 09:45:47;;;;;;;9.53;3.40;;;;;;;33.63;44.42;100009.69;1705928;84;21444;-55
2021/06/26 09:49:03;;;;;;;10.63;3.87;;;;;;;33.76;41.74;100006.64;1709757;82;21249;-54
2021/06/26 09:52:08;;;;;;;9.43;3.52;;;;;;;33.78;40.25;99999.20;1705951;84;21851;-56
2021/06/26 09:55:48;;;;;;;10.28;4.10;;;;;;;33.84;40.57;99997.87;1705292;84;21260;-56
2021/06/26 09:59:00;;;;;;;9.10;4.15;;;;;;;33.91;40.45;99991.94;1705210;84;21419;-55
2021/06/26 10:02:08;;;;;;;7.22;3.90;;;;;;;33.97;39.35;99983.47;1707018;82;21447;-54
2021/06/26 10:05:15;;;;;;;11.33;4.33;;;;;;;33.97;39.39;99984.05;1732870;82;21360;-56
2021/06/26 10:08:29;;;;;;;12.90;3.95;;;;;;;33.97;38.83;99978.36;1734947;82;21323;-57
2021/06/26 10:11:35;;;;;;;9.00;3.90;;;;;;;33.99;39.02;99963.23;1721769;82;21360;-55
2021/06/26 10:14:40;;;;;;;9.25;3.77;;;;;;;34.02;39.42;99965.39;1730592;82;21352;-54
2021/06/26 10:17:45;;;;;;;10.65;3.77;;;;;;;34.11;38.78;99959.11;1741607;82;21288;-55
2021/06/26 10:20:49;;;;;;;8.10;3.20;;;;;;;34.23;37.71;99954.94;1778162;80;21223;-54
2021/06/26 10:23:55;;;;;;;7.35;3.90;;;;;;;34.33;36.10;99947.45;1779100;80;21223;-55
2021/06/26 10:27:00;;;;;;;8.33;4.72;;;;;;;34.41;35.76;99940.91;1777990;80;21196;-56
2021/06/26 10:30:20;;;;;;;11.20;4.12;;;;;;;34.46;35.90;99943.52;1778138;80;21803;-56
2021/06/26 10:33:31;;;;;;;10.80;3.72;;;;;;;34.53;36.30;99940.98;1736683;81;21184;-54
2021/06/26 10:36:51;;;;;;;11.90;4.33;;;;;;;34.60;37.04;99933.56;1741531;82;21271;-56
2021/06/26 10:39:50;;;;;;;9.90;4.33;;;;;;;34.76;36.67;99939.46;1777824;80;21180;-56
2021/06/26 10:42:55;;;;;;;9.33;3.85;;;;;;;34.84;36.73;99935.72;1778431;80;21168;-55
2021/06/26 10:46:18;;;;;;;9.38;4.40;;;;;;;34.94;35.50;99935.34;1778477;80;21208;-55
2021/06/26 10:49:23;;;;;;;16.90;3.77;;;;;;;35.06;36.32;99926.03;1778857;80;21187;-56
2021/06/26 10:52:29;;;;;;;9.43;3.70;;;;;;;35.14;34.72;99929.39;1748651;81;21348;-55
2021/06/26 10:55:39;;;;;;;8.58;3.55;;;;;;;35.19;33.96;99926.34;1765613;81;21255;-56
2021/06/26 10:58:53;;;;;;;7.80;3.77;;;;;;;35.26;34.02;99926.00;1748726;81;21627;-56
2021/06/26 11:02:10;;;;;;;10.13;3.70;;;;;;;35.37;34.55;99924.41;1765638;81;21347;-56
2021/06/26 11:05:16;;;;;;;9.73;3.90;;;;;;;35.50;36.11;99924.70;1748758;81;21785;-56
2021/06/26 11:08:26;;;;;;;13.48;4.00;;;;;;;35.65;34.78;99935.39;1765539;81;21252;-55
2021/06/26 11:11:53;;;;;;;8.95;3.67;;;;;;;35.77;34.10;99926.89;1748128;81;21312;-55
2021/06/26 11:15:03;;;;;;;9.55;4.10;;;;;;;35.88;34.42;99932.98;1710449;84;21692;-56
2021/06/26 11:18:08;;;;;;;9.93;4.90;;;;;;;35.97;35.16;99933.11;1764783;80;21274;-56
2021/06/26 11:21:15;;;;;;;10.38;4.25;;;;;;;36.02;35.94;99934.30;1768114;81;21855;-56
2021/06/26 11:24:21;;;;;;;16.62;3.17;;;;;;;36.08;36.52;99924.33;1768770;81;21844;-57
2021/06/26 11:27:27;;;;;;;8.58;2.80;;;;;;;36.09;28.36;99934.53;1769123;81;21354;-56
2021/06/26 11:30:35;;;;;;;10.00;2.10;;;;;;;36.09;25.89;99930.25;1769180;81;21224;-56
2021/06/26 11:33:44;;;;;;;7.90;2.42;;;;;;;36.17;26.13;99938.47;1769241;81;21176;-57
2021/06/26 11:36:50;;;;;;;6.25;2.00;;;;;;;36.17;25.88;99937.05;1769237;81;21350;-55
2021/06/26 11:39:58;;;;;;;12.65;2.15;;;;;;;36.14;26.31;99930.61;1769255;81;21330;-54
2021/06/26 11:43:08;;;;;;;10.03;2.05;;;;;;;36.18;26.54;99933.00;1769140;81;21216;-55
2021/06/26 11:46:16;;;;;;;5.90;1.80;;;;;;;36.27;24.71;99935.73;1769491;81;21467;-56
2021/06/26 11:49:27;;;;;;;4.90;1.92;;;;;;;36.33;25.67;99931.48;1731657;81;21836;-56
2021/06/26 11:52:37;;;;;;;15.32;2.00;;;;;;;36.35;24.33;99923.38;1768174;81;21295;-55
2021/06/26 11:56:03;;;;;;;6.37;1.80;;;;;;;36.42;24.63;99919.34;1768029;81;21259;-54
2021/06/26 11:59:09;;;;;;;6.97;1.72;;;;;;;36.51;26.09;99933.72;1737772;82;21217;-54
2021/06/26 12:02:14;;;;;;;10.90;2.00;;;;;;;36.54;27.20;99920.74;1737997;82;21284;-55
2021/06/26 12:05:27;;;;;;;5.50;2.45;;;;;;;36.48;27.78;99922.19;1738025;82;21313;-55
2021/06/26 12:08:33;;;;;;;8.40;2.45;;;;;;;36.35;29.16;99916.25;1738086;82;21213;-55
2021/06/26 12:11:40;;;;;;;7.83;2.40;;;;;;;36.16;28.58;99916.83;1768279;81;21355;-54
2021/06/26 12:14:45;;;;;;;10.55;2.08;;;;;;;36.04;29.70;99920.50;1768094;81;21224;-54
2021/06/26 12:17:52;;;;;;;12.28;2.30;;;;;;;35.94;29.90;99915.88;1761392;80;21221;-54
2021/06/26 12:20:57;;;;;;;14.35;2.45;;;;;;;35.88;30.22;99915.30;1747993;82;21391;-54
2021/06/26 12:24:03;;;;;;;10.65;2.40;;;;;;;35.94;30.51;99916.72;1748028;82;21186;-55
2021/06/26 12:27:29;;;;;;;13.85;2.70;;;;;;;36.01;30.51;99908.39;1748009;82;21193;-54
2021/06/26 12:30:35;;;;;;;5.30;2.67;;;;;;;35.94;30.40;99901.05;1747750;82;21364;-55
2021/06/26 12:33:40;;;;;;;6.62;2.30;;;;;;;35.76;30.08;99899.56;1747555;82;21340;-55
2021/06/26 12:36:45;;;;;;;8.60;2.50;;;;;;;35.72;29.89;99890.66;1747895;82;21257;-55
2021/06/26 12:39:51;;;;;;;6.37;2.05;;;;;;;35.80;30.38;99876.31;1747905;82;21206;-54
2021/06/26 12:43:13;;;;;;;8.63;2.25;;;;;;;35.93;29.75;99868.62;1735155;81;21248;-55
2021/06/26 12:46:18;;;;;;;10.18;1.87;;;;;;;35.87;28.85;99867.21;1747831;82;21198;-56
2021/06/26 12:49:38;;;;;;;8.73;2.15;;;;;;;35.77;29.57;99865.63;1735640;81;21402;-56
2021/06/26 12:52:45;;;;;;;6.40;2.05;;;;;;;35.79;29.66;99853.27;1748025;82;21738;-55
2021/06/26 12:55:51;;;;;;;9.60;2.70;;;;;;;35.74;29.00;99852.68;1748061;82;21363;-54
2021/06/26 12:59:10;;;;;;;8.70;2.33;;;;;;;35.67;28.16;99839.02;1748416;82;21359;-55
2021/06/26 13:02:16;;;;;;;6.22;2.22;;;;;;;35.59;27.46;99837.11;1747493;82;21331;-55
2021/06/26 13:05:31;;;;;;;11.38;2.50;;;;;;;35.58;28.45;99839.73;1747642;82;21750;-54
2021/06/26 13:08:36;;;;;;;5.72;2.05;;;;;;;35.60;28.71;99833.06;1747837;82;21351;-55
2021/06/26 13:11:45;;;;;;;6.47;2.25;;;;;;;35.56;27.63;99833.55;1747553;82;21221;-56
2021/06/26 13:14:51;;;;;;;3.80;1.95;;;;;;;35.55;28.28;99829.64;1747653;82;21348;-56
2021/06/26 13:17:56;;;;;;;6.10;2.75;;;;;;;35.46;28.43;99825.47;1747344;82;21728;-55
2021/06/26 13:21:01;;;;;;;7.40;2.70;;;;;;;35.35;29.65;99829.92;1752510;82;21266;-54
2021/06/26 13:24:06;;;;;;;8.28;2.30;;;;;;;35.32;29.14;99827.78;1784114;80;21755;-54
2021/06/26 13:27:11;;;;;;;11.70;2.58;;;;;;;35.32;29.23;99820.67;1784056;80;21393;-56
2021/06/26 13:30:17;;;;;;;9.05;2.60;;;;;;;35.31;30.21;99814.75;1783261;80;21405;-55
2021/06/26 13:33:23;;;;;;;8.30;2.67;;;;;;;35.37;30.32;99811.09;1783720;80;21208;-56
2021/06/26 13:36:28;;;;;;;7.60;2.45;;;;;;;35.38;31.17;99811.35;1749773;82;21389;-56
2021/06/26 13:39:33;;;;;;;6.55;1.80;;;;;;;35.41;30.93;99813.48;1774659;81;21420;-55
2021/06/26 13:42:38;;;;;;;5.97;2.00;;;;;;;35.43;30.34;99811.09;1772286;81;21212;-55
2021/06/26 13:45:43;;;;;;;6.85;2.75;;;;;;;35.41;29.08;99797.21;1775309;80;21381;-56
2021/06/26 13:48:49;;;;;;;6.20;2.08;;;;;;;35.38;29.74;99790.80;1772460;81;21188;-57
2021/06/26 13:51:54;;;;;;;6.03;2.12;;;;;;;35.37;30.31;99787.73;1775412;80;21863;-57
2021/06/26 13:55:00;;;;;;;12.10;2.33;;;;;;;35.36;30.73;99784.62;1772447;81;21244;-56
2021/06/26 13:58:05;;;;;;;7.85;2.40;;;;;;;35.36;30.65;99783.20;1774841;80;21338;-56
2021/06/26 14:01:13;;;;;;;7.47;2.02;;;;;;;35.37;30.51;99786.89;1771704;81;21213;-56
2021/06/26 14:04:19;;;;;;;10.53;2.33;;;;;;;35.35;29.69;99784.37;1774798;80;21878;-56
2021/06/26 14:07:25;;;;;;;9.48;2.15;;;;;;;35.34;29.55;99781.88;1771523;81;21199;-56
2021/06/26 14:10:32;;;;;;;6.97;2.25;;;;;;;35.34;30.30;99774.17;1774509;80;21919;-55
2021/06/26 14:13:38;;;;;;;10.78;2.55;;;;;;;35.34;31.04;99775.59;1783762;80;21220;-57
2021/06/26 14:16:43;;;;;;;7.62;2.58;;;;;;;35.39;32.06;99778.83;1783707;80;21220;-56
2021/06/26 14:19:48;;;;;;;7.70;2.72;;;;;;;35.40;32.77;99771.36;1756700;81;21698;-56
2021/06/26 14:22:54;;;;;;;10.50;3.60;;;;;;;35.46;33.11;99773.36;1715754;83;21382;-54
2021/06/26 14:25:58;;;;;;;13.88;3.30;;;;;;;35.53;32.43;99780.73;1746771;82;21232;-55